Time;durP1;ratioP1;P1;durP2;ratioP2;P2;SDS_P1;SDS_P2;PMS_P1;PMS_P2;Temp;Humidity;BMP_temperature;BMP_pressure;BME280_temperature;BME280_humidity;BME280_pressure;Samples;Min_cycle;Max_cycle;Signal;HPM_P1;HPM_P2
2023/02/24 00:07:46;;;;;;;0.20;0.10;;;13.60;99.90;;;;;;21060027;28;20870;-70
2023/02/24 00:17:51;;;;;;;0.20;0.00;;;13.70;99.90;;;;;;21061375;28;20875;-69
2023/02/24 00:28:00;;;;;;;0.20;0.00;;;13.80;99.90;;;;;;21043247;28;20408;-70
2023/02/24 00:38:05;;;;;;;0.20;0.10;;;13.80;99.90;;;;;;21038319;28;20404;-70
2023/02/24 00:48:09;;;;;;;0.20;0.10;;;13.60;99.90;;;;;;21039764;28;20824;-70
2023/02/24 00:58:18;;;;;;;0.20;0.10;;;13.60;99.90;;;;;;21041044;28;20396;-72
2023/02/24 01:08:22;;;;;;;0.20;0.10;;;13.50;99.90;;;;;;21065573;28;20412;-73
2023/02/24 01:18:29;;;;;;;0.20;0.00;;;13.50;99.90;;;;;;21050081;28;20480;-72
2023/02/24 01:28:34;;;;;;;0.20;0.10;;;13.50;99.90;;;;;;21040119;28;20416;-70
2023/02/24 01:38:41;;;;;;;0.20;0.10;;;11.60;99.90;;;;;;21054619;28;20395;-72
2023/02/24 01:48:45;;;;;;;0.20;0.10;;;10.80;99.90;;;;;;21039700;28;20471;-70
2023/02/24 01:58:51;;;;;;;0.20;0.00;;;10.40;99.90;;;;;;21060813;28;20947;-70
2023/02/24 02:08:55;;;;;;;0.20;0.10;;;9.70;99.90;;;;;;21041562;28;20446;-69
2023/02/24 02:19:18;;;;;;;0.20;0.10;;;9.20;99.90;;;;;;21058114;28;21166;-70
2023/02/24 02:30:06;;;;;;;0.20;0.10;;;8.70;99.90;;;;;;21023185;28;20402;-68
2023/02/24 02:40:20;;;;;;;0.20;0.10;;;8.20;99.90;;;;;;20938303;28;20419;-68
2023/02/24 02:50:27;;;;;;;0.20;0.10;;;7.90;99.90;;;;;;20972482;28;20452;-69
2023/02/24 03:00:36;;;;;;;0.20;0.00;;;7.70;99.90;;;;;;21010775;28;20472;-67
2023/02/24 03:10:43;;;;;;;0.20;0.10;;;7.70;99.90;;;;;;20965860;28;20403;-70
2023/02/24 03:20:56;;;;;;;0.20;0.10;;;7.60;99.90;;;;;;20943958;28;20414;-69
2023/02/24 03:31:06;;;;;;;0.20;0.10;;;7.60;99.90;;;;;;21001025;28;20686;-68
2023/02/24 03:41:12;;;;;;;0.20;0.10;;;7.50;99.90;;;;;;20958500;28;20411;-70
2023/02/24 03:51:17;;;;;;;0.20;0.10;;;7.90;99.90;;;;;;20983330;28;20421;-71
2023/02/24 04:01:33;;;;;;;0.20;0.10;;;7.90;99.90;;;;;;21049539;28;20404;-73
2023/02/24 04:11:44;;;;;;;0.20;0.10;;;8.00;99.90;;;;;;21001825;28;20401;-70
2023/02/24 04:21:50;;;;;;;0.20;0.10;;;8.30;99.90;;;;;;21040520;28;20408;-70
2023/02/24 04:32:00;;;;;;;0.20;0.10;;;8.40;99.90;;;;;;21060366;28;20436;-69
2023/02/24 04:42:07;;;;;;;0.20;0.10;;;8.80;99.90;;;;;;20946989;28;20411;-70
2023/02/24 04:52:10;;;;;;;0.20;0.10;;;9.10;99.90;;;;;;21023378;28;20400;-70
2023/02/24 05:02:16;;;;;;;0.20;0.10;;;9.30;99.90;;;;;;21063170;28;20404;-70
2023/02/24 05:12:22;;;;;;;0.20;0.10;;;9.00;99.90;;;;;;21008066;28;20398;-70
2023/02/24 05:22:28;;;;;;;0.20;0.10;;;9.40;99.90;;;;;;20979273;28;20908;-71
2023/02/24 05:32:33;;;;;;;0.20;0.10;;;9.50;99.90;;;;;;20959447;28;20765;-70
2023/02/24 05:42:40;;;;;;;0.20;0.10;;;9.10;99.90;;;;;;20963100;28;20852;-71
2023/02/24 05:52:44;;;;;;;0.20;0.10;;;9.20;99.90;;;;;;20959658;28;20451;-70
2023/02/24 06:02:49;;;;;;;0.20;0.10;;;8.90;99.90;;;;;;20939326;28;20789;-68
2023/02/24 06:12:53;;;;;;;0.20;0.10;;;8.70;99.90;;;;;;20930810;28;20755;-69
2023/02/24 06:23:00;;;;;;;0.20;0.10;;;8.60;99.90;;;;;;20974678;28;20873;-69
2023/02/24 06:33:05;;;;;;;0.20;0.10;;;8.60;99.90;;;;;;20971962;28;20389;-69
2023/02/24 06:43:10;;;;;;;0.20;0.10;;;8.20;99.90;;;;;;20970264;28;20413;-70
2023/02/24 06:53:17;;;;;;;0.20;0.10;;;8.30;99.90;;;;;;20968380;28;20410;-70
2023/02/24 07:03:38;;;;;;;0.20;0.10;;;8.20;99.90;;;;;;20981947;28;21086;-70
2023/02/24 07:13:41;;;;;;;0.20;0.10;;;8.10;99.90;;;;;;20950339;28;20425;-69
2023/02/24 07:23:48;;;;;;;0.20;0.10;;;8.20;99.90;;;;;;20967299;28;20420;-70
2023/02/24 07:33:55;;;;;;;0.20;0.10;;;8.30;99.90;;;;;;20982810;28;20460;-69
2023/02/24 07:44:02;;;;;;;0.20;0.10;;;8.40;99.90;;;;;;20963661;28;20430;-69
2023/02/24 07:54:07;;;;;;;0.20;0.10;;;8.50;99.90;;;;;;20963231;28;20416;-79
2023/02/24 08:04:14;;;;;;;0.20;0.10;;;8.80;99.90;;;;;;20946979;28;20483;-70
2023/02/24 08:14:19;;;;;;;0.20;0.10;;;8.90;99.90;;;;;;20977759;28;20402;-70
2023/02/24 08:24:28;;;;;;;0.20;0.10;;;9.30;99.90;;;;;;20958286;28;20406;-70
2023/02/24 08:34:32;;;;;;;0.20;0.10;;;9.60;99.90;;;;;;21034238;28;20408;-70
2023/02/24 08:44:38;;;;;;;0.20;0.10;;;9.70;99.90;;;;;;21019799;28;20424;-70
2023/02/24 08:54:47;;;;;;;0.20;0.10;;;9.90;99.90;;;;;;21041622;28;20407;-70
2023/02/24 09:04:55;;;;;;;0.20;0.10;;;10.10;99.90;;;;;;21055184;28;20963;-70
2023/02/24 09:15:03;;;;;;;0.20;0.00;;;10.30;99.90;;;;;;21037341;28;20455;-71
2023/02/24 09:25:24;;;;;;;0.20;0.10;;;10.70;99.90;;;;;;21039285;28;20894;-71
2023/02/24 09:35:29;;;;;;;0.20;0.10;;;10.90;99.90;;;;;;21038715;28;20400;-70
2023/02/24 09:45:38;;;;;;;0.20;0.10;;;11.00;99.90;;;;;;21067199;28;20419;-71
2023/02/24 09:55:59;;;;;;;0.20;0.10;;;11.30;99.90;;;;;;21068490;28;20747;-72
2023/02/24 10:06:11;;;;;;;0.20;0.00;;;11.70;99.90;;;;;;21054777;28;20909;-70
2023/02/24 10:16:22;;;;;;;0.20;0.10;;;11.90;99.90;;;;;;21071112;28;20396;-68
2023/02/24 10:26:43;;;;;;;0.20;0.10;;;12.50;99.90;;;;;;20986746;28;20793;-69
2023/02/24 10:37:10;;;;;;;0.20;0.10;;;13.00;99.90;;;;;;21010057;28;20428;-69
2023/02/24 10:47:32;;;;;;;0.20;0.10;;;13.60;99.90;;;;;;21045230;28;20477;-69
2023/02/24 10:57:48;;;;;;;0.20;0.10;;;14.00;99.90;;;;;;21065216;28;20728;-69
2023/02/24 11:08:35;;;;;;;0.20;0.00;;;14.50;99.90;;;;;;21048477;28;20400;-69
2023/02/24 11:18:40;;;;;;;0.20;0.10;;;15.00;99.90;;;;;;21045104;28;20895;-69
2023/02/24 11:29:16;;;;;;;0.20;0.10;;;15.80;99.90;;;;;;21062723;28;20412;-70
2023/02/24 11:39:44;;;;;;;0.20;0.00;;;16.40;99.90;;;;;;21027180;28;20403;-69
2023/02/24 11:49:53;;;;;;;0.20;0.10;;;16.40;99.90;;;;;;21060976;28;20902;-69
2023/02/24 12:00:04;;;;;;;0.20;0.10;;;15.70;99.90;;;;;;21062678;28;20399;-70
2023/02/24 12:10:18;;;;;;;0.20;0.10;;;16.50;99.90;;;;;;21042264;28;20917;-70
2023/02/24 12:20:28;;;;;;;0.20;0.00;;;17.00;99.90;;;;;;21042048;28;20424;-70
2023/02/24 12:30:48;;;;;;;0.20;0.10;;;17.20;99.90;;;;;;21060689;28;20404;-69
2023/02/24 12:41:05;;;;;;;0.20;0.10;;;17.50;99.90;;;;;;21038384;28;20497;-69
2023/02/24 12:51:17;;;;;;;0.20;0.10;;;17.50;99.90;;;;;;20970262;28;20896;-69
2023/02/24 13:01:27;;;;;;;0.20;0.10;;;17.90;99.90;;;;;;20939299;28;20460;-67
2023/02/24 13:11:42;;;;;;;0.20;0.00;;;18.80;99.90;;;;;;20955779;28;20410;-69
2023/02/24 13:21:56;;;;;;;0.20;0.00;;;19.50;99.90;;;;;;20955051;28;20710;-68
2023/02/24 13:32:01;;;;;;;0.20;0.00;;;19.90;99.90;;;;;;20994909;28;20402;-69
2023/02/24 13:42:20;;;;;;;0.20;0.00;;;20.00;99.90;;;;;;21015652;28;20408;-70
2023/02/24 13:52:39;;;;;;;0.20;0.00;;;19.60;99.90;;;;;;21051999;28;20403;-68
2023/02/24 14:02:44;;;;;;;0.20;0.00;;;19.50;99.90;;;;;;21018427;28;20821;-73
2023/02/24 14:12:50;;;;;;;0.20;0.00;;;20.10;99.90;;;;;;21054436;28;20908;-68
2023/02/24 14:22:57;;;;;;;0.20;0.00;;;20.90;99.90;;;;;;21032629;28;20507;-67
2023/02/24 14:33:04;;;;;;;0.20;0.08;;;21.40;99.90;;;;;;21061969;28;20400;-68
2023/02/24 14:43:15;;;;;;;0.20;0.10;;;21.60;99.90;;;;;;21064419;28;20428;-68
2023/02/24 14:53:22;;;;;;;0.20;0.10;;;18.10;99.90;;;;;;21044253;28;21257;-64
2023/02/24 15:03:30;;;;;;;0.20;0.00;;;16.90;99.90;;;;;;21061825;28;20415;-67
2023/02/24 15:13:38;;;;;;;0.20;0.10;;;16.30;99.90;;;;;;21034034;28;20394;-68
2023/02/24 15:23:43;;;;;;;0.20;0.10;;;15.80;99.90;;;;;;21030796;28;20406;-69
2023/02/24 15:33:56;;;;;;;0.20;0.10;;;15.90;99.90;;;;;;21020943;28;20412;-69
2023/02/24 15:44:00;;;;;;;0.20;0.10;;;15.90;99.90;;;;;;21055122;28;20416;-69
2023/02/24 15:54:11;;;;;;;0.20;0.10;;;15.40;99.90;;;;;;21060476;28;20894;-68
2023/02/24 16:04:15;;;;;;;0.20;0.10;;;14.60;99.90;;;;;;21020168;28;20467;-70
2023/02/24 16:14:20;;;;;;;0.20;0.10;;;14.30;99.90;;;;;;21021480;28;20406;-68
2023/02/24 16:24:24;;;;;;;0.20;0.00;;;14.30;99.90;;;;;;21018499;28;20424;-68
2023/02/24 16:34:29;;;;;;;0.20;0.00;;;14.30;99.90;;;;;;21030297;28;20400;-68
2023/02/24 16:44:33;;;;;;;0.20;0.10;;;14.20;99.90;;;;;;21033002;28;20444;-68
2023/02/24 16:54:38;;;;;;;0.20;0.10;;;13.60;99.90;;;;;;21032931;28;21105;-68
2023/02/24 17:04:42;;;;;;;0.20;0.10;;;13.50;99.90;;;;;;21031166;28;20491;-69
2023/02/24 17:14:48;;;;;;;0.20;0.10;;;13.30;99.90;;;;;;21033750;28;20432;-68
2023/02/24 17:24:51;;;;;;;0.20;0.10;;;13.20;99.90;;;;;;21034069;28;20419;-67
2023/02/24 17:34:58;;;;;;;0.20;0.10;;;13.10;99.90;;;;;;21032201;28;20623;-67
2023/02/24 17:45:02;;;;;;;0.20;0.10;;;13.10;99.90;;;;;;21027902;28;20408;-66
2023/02/24 17:55:09;;;;;;;0.20;0.10;;;12.90;99.90;;;;;;21035643;28;20504;-66
2023/02/24 18:05:13;;;;;;;0.20;0.07;;;12.70;99.90;;;;;;21041943;28;20419;-68
2023/02/24 18:15:18;;;;;;;0.20;0.10;;;12.50;99.90;;;;;;21034613;28;20799;-67
2023/02/24 18:25:22;;;;;;;0.20;0.10;;;12.20;99.90;;;;;;21068511;28;20407;-67
2023/02/24 18:35:29;;;;;;;0.20;0.10;;;12.20;99.90;;;;;;21067825;28;20400;-68
2023/02/24 18:45:33;;;;;;;0.20;0.10;;;12.00;99.90;;;;;;21059452;28;20392;-67
2023/02/24 18:55:38;;;;;;;0.20;0.10;;;11.70;99.90;;;;;;21045031;28;20401;-69
2023/02/24 19:05:42;;;;;;;0.20;0.10;;;11.60;99.90;;;;;;21041963;28;20415;-68
2023/02/24 19:15:47;;;;;;;0.20;0.10;;;11.10;99.90;;;;;;21064076;28;20467;-68
2023/02/24 19:25:51;;;;;;;0.20;0.10;;;10.90;99.90;;;;;;21057906;28;20845;-66
2023/02/24 19:35:59;;;;;;;0.20;0.10;;;10.60;99.90;;;;;;21051627;28;20412;-67
2023/02/24 19:46:05;;;;;;;0.20;0.00;;;10.50;99.90;;;;;;21055057;28;20408;-66
2023/02/24 19:56:11;;;;;;;0.20;0.10;;;10.40;99.90;;;;;;21037260;28;20479;-67
2023/02/24 20:06:18;;;;;;;0.20;0.10;;;10.30;99.90;;;;;;21059566;28;20836;-66
2023/02/24 20:16:25;;;;;;;0.20;0.10;;;10.20;99.90;;;;;;21060226;28;20894;-66
2023/02/24 20:26:30;;;;;;;0.20;0.10;;;10.30;99.90;;;;;;21059659;28;20412;-67
2023/02/24 20:36:36;;;;;;;0.20;0.10;;;10.50;99.90;;;;;;20995567;28;20460;-68
2023/02/24 20:46:40;;;;;;;0.20;0.10;;;10.60;99.90;;;;;;20959777;28;20449;-67
2023/02/24 20:56:46;;;;;;;0.20;0.10;;;10.40;99.90;;;;;;20968758;28;20414;-67
2023/02/24 21:06:51;;;;;;;0.20;0.10;;;10.40;99.90;;;;;;20951124;28;20406;-69
2023/02/24 21:16:56;;;;;;;0.20;0.10;;;10.50;99.90;;;;;;20970820;28;20419;-68
2023/02/24 21:27:00;;;;;;;0.20;0.10;;;10.40;99.90;;;;;;21041227;28;20404;-68
2023/02/24 21:37:06;;;;;;;0.20;0.10;;;10.70;99.90;;;;;;20977215;28;20414;-68
2023/02/24 21:47:10;;;;;;;0.20;0.10;;;11.00;99.90;;;;;;20974266;28;20408;-67
2023/02/24 21:57:17;;;;;;;0.20;0.10;;;11.10;99.90;;;;;;21072221;28;20400;-72
2023/02/24 22:07:20;;;;;;;0.20;0.10;;;11.00;99.90;;;;;;21054032;28;20418;-68
2023/02/24 22:17:26;;;;;;;0.20;0.10;;;10.90;99.90;;;;;;20959145;28;20399;-68
2023/02/24 22:27:29;;;;;;;0.20;0.00;;;10.70;99.90;;;;;;20902598;28;20470;-67
2023/02/24 22:37:35;;;;;;;0.20;0.10;;;10.80;99.90;;;;;;20913621;28;20440;-67
2023/02/24 22:47:39;;;;;;;0.20;0.10;;;11.00;99.90;;;;;;21011223;28;20406;-68
2023/02/24 22:57:45;;;;;;;0.20;0.10;;;11.00;99.90;;;;;;20982769;28;20474;-68
2023/02/24 23:07:48;;;;;;;0.20;0.10;;;10.80;99.90;;;;;;20982308;28;20414;-69
2023/02/24 23:17:54;;;;;;;0.20;0.10;;;10.50;99.90;;;;;;20962720;28;20448;-68
2023/02/24 23:27:58;;;;;;;0.20;0.10;;;10.30;99.90;;;;;;20994622;28;20475;-68
2023/02/24 23:38:03;;;;;;;0.20;0.10;;;10.00;99.90;;;;;;20926547;28;20882;-67
2023/02/24 23:48:08;;;;;;;0.20;0.10;;;10.00;99.90;;;;;;20953043;28;20768;-67
2023/02/24 23:58:13;;;;;;;0.20;0.10;;;9.90;99.90;;;;;;20964324;28;20774;-67
